Time;durP1;ratioP1;P1;durP2;ratioP2;P2;SDS_P1;SDS_P2;PMS_P1;PMS_P2;Temp;Humidity;BMP_temperature;BMP_pressure;BME280_temperature;BME280_humidity;BME280_pressure;Samples;Min_cycle;Max_cycle;Signal;HPM_P1;HPM_P2
2023/01/17 00:02:08;;;;;;;0.20;0.20;;;3.20;99.90;;;;;;5084171;28;20426;-75
2023/01/17 00:10:20;;;;;;;0.20;0.20;;;3.20;99.90;;;;;;5083401;28;20552;-75
2023/01/17 00:12:58;;;;;;;0.77;0.22;;;3.30;99.90;;;;;;5099419;28;20968;-75
2023/01/17 00:15:26;;;;;;;0.20;0.20;;;3.30;99.90;;;;;;5083428;28;20434;-75
2023/01/17 00:17:53;;;;;;;0.90;0.50;;;3.30;99.90;;;;;;5084673;28;20440;-76
2023/01/17 00:26:18;;;;;;;0.22;0.22;;;3.30;99.90;;;;;;5083946;28;20514;-76
2023/01/17 01:33:51;;;;;;;0.17;0.17;;;1.80;99.90;;;;;;5086806;28;20421;-74
2023/01/17 01:36:18;;;;;;;0.17;0.17;;;1.80;99.90;;;;;;5081025;28;20804;-74
2023/01/17 01:38:45;;;;;;;0.50;0.50;;;1.80;99.90;;;;;;5083921;28;20461;-74
2023/01/17 01:41:12;;;;;;;0.50;0.28;;;1.80;99.90;;;;;;5070892;28;20427;-75
2023/01/17 01:43:50;;;;;;;0.10;0.10;;;1.80;99.90;;;;;;5089252;28;20426;-74
2023/01/17 01:46:25;;;;;;;0.30;0.30;;;1.80;99.90;;;;;;5077016;28;20425;-74
2023/01/17 01:48:57;;;;;;;0.20;0.20;;;1.90;99.90;;;;;;5085874;28;20430;-73
2023/01/17 01:51:38;;;;;;;0.20;0.20;;;1.90;99.90;;;;;;5076838;28;20443;-73
2023/01/17 01:54:15;;;;;;;0.28;0.28;;;2.00;99.90;;;;;;5071097;28;20436;-74
2023/01/17 01:56:44;;;;;;;0.40;0.40;;;2.10;99.90;;;;;;5090838;28;20463;-74
2023/01/17 01:59:14;;;;;;;0.20;0.20;;;2.20;99.90;;;;;;5088008;28;20421;-74
2023/01/17 02:01:41;;;;;;;0.30;0.30;;;2.30;99.90;;;;;;5090790;28;20758;-73
2023/01/17 02:04:08;;;;;;;0.85;0.85;;;2.40;99.90;;;;;;5076432;28;21091;-74
2023/01/17 02:06:40;;;;;;;0.30;0.30;;;2.40;99.90;;;;;;5090554;28;20429;-74
2023/01/17 02:09:10;;;;;;;0.20;0.20;;;2.50;99.90;;;;;;5095567;28;20429;-76
2023/01/17 02:11:38;;;;;;;0.50;0.50;;;2.50;99.90;;;;;;5107454;28;20471;-76
2023/01/17 02:14:05;;;;;;;0.20;0.20;;;2.50;99.90;;;;;;5083586;28;20521;-76
2023/01/17 02:17:07;;;;;;;0.20;0.20;;;2.50;99.90;;;;;;5087155;28;20550;-76
2023/01/17 02:19:55;;;;;;;0.17;0.17;;;2.50;99.90;;;;;;5067902;28;20818;-75
2023/01/17 02:22:48;;;;;;;0.30;0.30;;;2.50;99.90;;;;;;5063289;28;20424;-76
2023/01/17 02:25:33;;;;;;;0.20;0.20;;;2.50;99.90;;;;;;5065105;28;20435;-77
2023/01/17 02:28:35;;;;;;;0.40;0.40;;;2.50;99.90;;;;;;5073446;28;20423;-76
2023/01/17 02:31:26;;;;;;;2.22;0.47;;;2.50;99.90;;;;;;5068722;28;20800;-76
2023/01/17 02:34:09;;;;;;;0.43;0.30;;;2.50;99.90;;;;;;5068555;28;20419;-76
2023/01/17 02:36:42;;;;;;;0.35;0.35;;;2.50;99.90;;;;;;5065395;28;20584;-74
2023/01/17 02:39:19;;;;;;;0.30;0.30;;;2.40;99.90;;;;;;5073477;28;21161;-73
2023/01/17 02:41:51;;;;;;;0.25;0.25;;;2.30;99.90;;;;;;5071787;28;20452;-74
2023/01/17 02:44:19;;;;;;;0.60;0.60;;;2.20;99.90;;;;;;5071190;28;20434;-74
2023/01/17 02:46:49;;;;;;;0.30;0.30;;;2.00;99.90;;;;;;5073032;28;20964;-74
2023/01/17 02:49:18;;;;;;;0.10;0.10;;;1.90;99.90;;;;;;5069028;28;20455;-74
2023/01/17 02:52:12;;;;;;;0.20;0.20;;;1.80;99.90;;;;;;5063913;28;20516;-74
2023/01/17 02:54:41;;;;;;;0.30;0.30;;;1.80;99.90;;;;;;5051380;28;20509;-74
2023/01/17 02:57:11;;;;;;;0.10;0.10;;;1.70;99.90;;;;;;5077337;28;20433;-75
2023/01/17 03:00:09;;;;;;;0.10;0.10;;;1.70;99.90;;;;;;5092015;28;20796;-75
2023/01/17 03:02:56;;;;;;;1.90;0.50;;;1.60;99.90;;;;;;5083899;28;20515;-75
2023/01/17 03:05:32;;;;;;;0.30;0.30;;;1.40;99.90;;;;;;5096189;28;20443;-75
2023/01/17 03:08:01;;;;;;;0.35;0.35;;;1.30;99.90;;;;;;5082841;28;20459;-75
2023/01/17 03:10:31;;;;;;;1.20;0.70;;;1.20;99.90;;;;;;5084013;28;20930;-75
2023/01/17 03:13:02;;;;;;;0.50;0.50;;;1.00;99.90;;;;;;5089729;27;20438;-74
2023/01/17 03:15:28;;;;;;;0.40;0.40;;;0.90;99.90;;;;;;5094555;28;20425;-75
2023/01/17 03:18:00;;;;;;;0.50;0.50;;;0.70;99.90;;;;;;5085977;28;20520;-75
2023/01/17 03:20:34;;;;;;;0.20;0.20;;;0.50;99.90;;;;;;5075909;28;20436;-75
2023/01/17 03:23:01;;;;;;;0.50;0.22;;;0.50;99.90;;;;;;5087812;28;20430;-75
2023/01/17 03:25:27;;;;;;;0.40;0.40;;;0.50;99.90;;;;;;5095671;28;20445;-75
2023/01/17 03:27:54;;;;;;;0.28;0.28;;;0.50;99.90;;;;;;5090517;28;20520;-75
2023/01/17 03:30:21;;;;;;;0.40;0.40;;;0.40;99.90;;;;;;5094742;28;20426;-75
2023/01/17 03:32:48;;;;;;;0.40;0.40;;;0.50;99.90;;;;;;5090104;28;20913;-75
2023/01/17 03:35:15;;;;;;;0.13;0.13;;;0.40;99.90;;;;;;5094626;28;20514;-75
2023/01/17 03:37:44;;;;;;;0.20;0.20;;;0.30;99.90;;;;;;5092192;28;20427;-74
2023/01/17 03:40:11;;;;;;;0.80;0.70;;;0.30;99.90;;;;;;5083760;28;20430;-75
2023/01/17 03:42:38;;;;;;;0.20;0.20;;;0.20;99.90;;;;;;5078617;28;20423;-75
2023/01/17 03:45:05;;;;;;;0.30;0.30;;;0.20;99.90;;;;;;5081946;28;20453;-75
2023/01/17 03:47:34;;;;;;;0.20;0.20;;;0.10;99.90;;;;;;5078866;28;20431;-75
2023/01/17 03:50:02;;;;;;;0.20;0.20;;;0.10;99.90;;;;;;5087202;28;20421;-75
2023/01/17 03:52:32;;;;;;;0.20;0.20;;;0.00;99.90;;;;;;5081230;28;20438;-75
2023/01/17 03:54:58;;;;;;;0.20;0.20;;;-0.10;99.90;;;;;;5075366;28;20444;-75
2023/01/17 03:57:25;;;;;;;0.30;0.30;;;-0.10;99.90;;;;;;5087390;28;20426;-75
2023/01/17 03:59:52;;;;;;;0.20;0.20;;;-0.20;99.90;;;;;;5077749;28;20938;-76
2023/01/17 04:02:19;;;;;;;1.15;0.30;;;-0.30;99.90;;;;;;5103699;28;20512;-75
2023/01/17 04:04:49;;;;;;;0.50;0.50;;;-0.40;99.90;;;;;;5082161;28;20434;-75
2023/01/17 04:07:22;;;;;;;0.30;0.30;;;-0.50;99.90;;;;;;5091493;27;20492;-76
2023/01/17 04:09:48;;;;;;;0.30;0.30;;;-0.60;99.90;;;;;;5079903;28;20949;-76
2023/01/17 04:12:15;;;;;;;0.30;0.30;;;-0.70;99.90;;;;;;5091219;28;20427;-76
2023/01/17 04:14:42;;;;;;;1.08;0.28;;;-0.70;99.90;;;;;;5078433;28;20425;-76
2023/01/17 04:17:12;;;;;;;0.40;0.30;;;-0.80;99.90;;;;;;5082459;28;20434;-76
2023/01/17 04:19:40;;;;;;;0.60;0.60;;;-1.00;99.90;;;;;;5094881;28;21695;-76
2023/01/17 04:22:07;;;;;;;0.20;0.20;;;-1.20;99.90;;;;;;5095844;28;20424;-76
2023/01/17 04:24:34;;;;;;;0.20;0.20;;;-1.20;99.90;;;;;;5090975;28;20979;-76
2023/01/17 04:27:02;;;;;;;0.53;0.23;;;-1.20;99.90;;;;;;5090632;28;20797;-76
2023/01/17 04:29:29;;;;;;;0.20;0.20;;;-1.20;99.90;;;;;;5095768;28;20433;-76
2023/01/17 04:31:55;;;;;;;0.30;0.30;;;-1.10;99.90;;;;;;5078827;28;20431;-76
2023/01/17 04:34:22;;;;;;;0.30;0.30;;;-0.90;99.90;;;;;;5080728;28;20422;-76
2023/01/17 04:36:49;;;;;;;0.30;0.30;;;-0.60;99.90;;;;;;5074433;28;20431;-75
2023/01/17 04:39:16;;;;;;;0.40;0.40;;;-0.40;99.90;;;;;;5077996;28;20426;-76
2023/01/17 04:41:46;;;;;;;0.50;0.30;;;-0.20;99.90;;;;;;5091126;28;20426;-76
2023/01/17 04:44:12;;;;;;;0.30;0.30;;;0.00;99.90;;;;;;5076091;28;20426;-75
2023/01/17 04:46:39;;;;;;;0.30;0.30;;;0.10;99.90;;;;;;5083137;28;20434;-76
2023/01/17 04:49:06;;;;;;;0.30;0.30;;;0.20;99.90;;;;;;5085236;28;20432;-76
2023/01/17 04:51:33;;;;;;;0.20;0.20;;;0.30;99.90;;;;;;5097353;28;20421;-76
2023/01/17 04:54:02;;;;;;;0.70;0.38;;;0.40;99.90;;;;;;5074768;28;20442;-76
2023/01/17 04:56:32;;;;;;;0.40;0.40;;;0.50;99.90;;;;;;5092168;28;22287;-76
2023/01/17 04:58:59;;;;;;;0.40;0.40;;;0.50;99.90;;;;;;5079153;28;20490;-76
2023/01/17 05:01:26;;;;;;;1.50;0.50;;;0.60;99.90;;;;;;5079068;28;20425;-76
2023/01/17 05:03:57;;;;;;;0.43;0.43;;;0.70;99.90;;;;;;5079822;28;20424;-76
2023/01/17 05:06:23;;;;;;;0.77;0.55;;;0.70;99.90;;;;;;5091992;28;20545;-76
2023/01/17 05:08:50;;;;;;;0.30;0.30;;;0.80;99.90;;;;;;5071651;28;20455;-75
2023/01/17 05:11:17;;;;;;;0.40;0.40;;;0.70;99.90;;;;;;5087293;28;20478;-76
2023/01/17 05:13:46;;;;;;;0.30;0.30;;;0.70;99.90;;;;;;5085315;28;20432;-76
2023/01/17 05:16:16;;;;;;;0.30;0.30;;;0.80;99.90;;;;;;5098532;28;20512;-75
2023/01/17 05:18:42;;;;;;;0.37;0.37;;;0.70;99.90;;;;;;5080833;28;20990;-75
2023/01/17 05:21:09;;;;;;;0.40;0.40;;;0.70;99.90;;;;;;5085066;28;20505;-75
2023/01/17 05:23:36;;;;;;;0.20;0.20;;;0.70;99.90;;;;;;5090171;28;20422;-76
2023/01/17 05:26:03;;;;;;;0.20;0.20;;;0.70;99.90;;;;;;5098536;28;20422;-75
2023/01/17 05:28:30;;;;;;;0.50;0.50;;;0.70;99.90;;;;;;5085571;28;20473;-77
2023/01/17 05:30:59;;;;;;;0.40;0.40;;;0.80;99.90;;;;;;5093838;28;22159;-77
2023/01/17 05:33:28;;;;;;;0.30;0.30;;;0.80;99.90;;;;;;5073491;28;20808;-77
2023/01/17 05:35:55;;;;;;;0.40;0.40;;;0.90;99.90;;;;;;5076874;28;20432;-77
2023/01/17 05:38:22;;;;;;;0.43;0.43;;;0.90;99.90;;;;;;5085158;28;20512;-77
2023/01/17 05:40:49;;;;;;;0.30;0.30;;;1.00;99.90;;;;;;5088060;28;20428;-77
2023/01/17 05:43:16;;;;;;;0.50;0.50;;;1.00;99.90;;;;;;5098794;28;20500;-75
2023/01/17 05:45:43;;;;;;;0.43;0.43;;;1.00;99.90;;;;;;5087201;28;20783;-77
2023/01/17 05:48:12;;;;;;;0.35;0.35;;;1.00;99.90;;;;;;5080065;28;22279;-76
2023/01/17 05:50:38;;;;;;;0.40;0.40;;;1.00;99.90;;;;;;5077724;28;20439;-77
2023/01/17 05:53:08;;;;;;;0.50;0.40;;;1.00;99.90;;;;;;5100167;28;20461;-77
2023/01/17 05:55:35;;;;;;;0.47;0.32;;;1.00;99.90;;;;;;5081456;28;20430;-77
2023/01/17 05:58:02;;;;;;;2.03;0.90;;;1.00;99.90;;;;;;5090343;28;20503;-78
2023/01/17 06:00:30;;;;;;;1.10;0.68;;;1.00;99.90;;;;;;5085619;28;20530;-77
2023/01/17 06:02:59;;;;;;;0.30;0.30;;;1.00;99.90;;;;;;5082401;28;20461;-77
2023/01/17 06:05:27;;;;;;;0.35;0.35;;;1.00;99.90;;;;;;5110140;28;20535;-77
2023/01/17 06:07:56;;;;;;;0.38;0.38;;;1.00;99.90;;;;;;5088254;28;20908;-77
2023/01/17 06:10:24;;;;;;;0.70;0.70;;;1.00;99.90;;;;;;5097284;28;20429;-78
2023/01/17 06:13:24;;;;;;;0.30;0.30;;;0.90;99.90;;;;;;5078629;28;20878;-77
2023/01/17 06:16:09;;;;;;;0.40;0.40;;;0.90;99.90;;;;;;5078768;28;20950;-77
2023/01/17 06:18:36;;;;;;;0.45;0.45;;;0.90;99.90;;;;;;5085341;28;20426;-77
2023/01/17 06:21:03;;;;;;;0.50;0.50;;;0.80;99.90;;;;;;5093250;28;20421;-73
2023/01/17 06:23:30;;;;;;;0.30;0.30;;;0.90;99.90;;;;;;5086750;28;20438;-73
2023/01/17 06:26:02;;;;;;;0.30;0.30;;;0.90;99.90;;;;;;5086613;28;20422;-74
2023/01/17 06:28:29;;;;;;;0.30;0.30;;;0.90;99.90;;;;;;5100037;28;20438;-73
2023/01/17 06:30:56;;;;;;;0.40;0.40;;;0.80;99.90;;;;;;5089635;28;20428;-73
2023/01/17 06:33:23;;;;;;;0.60;0.60;;;0.70;99.90;;;;;;5092538;28;20533;-73
2023/01/17 06:35:51;;;;;;;0.70;0.70;;;0.70;99.90;;;;;;5084431;28;20523;-73
2023/01/17 06:38:18;;;;;;;0.60;0.60;;;0.70;99.90;;;;;;5098073;28;20464;-73
2023/01/17 06:40:45;;;;;;;0.40;0.40;;;0.60;99.90;;;;;;5089150;28;20432;-74
2023/01/17 06:43:15;;;;;;;0.80;0.40;;;0.40;99.90;;;;;;5088409;28;20432;-74
2023/01/17 06:45:41;;;;;;;0.50;0.50;;;0.30;99.90;;;;;;5100061;28;20428;-74
2023/01/17 06:48:08;;;;;;;0.40;0.40;;;0.20;99.90;;;;;;5083999;28;20442;-72
2023/01/17 06:50:35;;;;;;;0.50;0.50;;;0.20;99.90;;;;;;5092756;28;20958;-72
2023/01/17 06:53:05;;;;;;;0.55;0.55;;;0.20;99.90;;;;;;5085079;28;20431;-72
2023/01/17 06:55:33;;;;;;;0.38;0.38;;;0.20;99.90;;;;;;5078694;28;20500;-73
2023/01/17 06:58:01;;;;;;;0.30;0.30;;;0.10;99.90;;;;;;5082635;28;20444;-72
2023/01/17 07:00:29;;;;;;;0.40;0.40;;;0.10;99.90;;;;;;5077817;28;20432;-73
2023/01/17 07:02:56;;;;;;;0.38;0.38;;;0.20;99.90;;;;;;5099086;28;20424;-73
2023/01/17 07:05:23;;;;;;;0.40;0.40;;;0.20;99.90;;;;;;5074892;28;20439;-73
2023/01/17 07:07:53;;;;;;;0.30;0.30;;;0.20;99.90;;;;;;5089987;28;20788;-72
2023/01/17 07:10:20;;;;;;;0.55;0.55;;;0.30;99.90;;;;;;5077384;28;20432;-72
2023/01/17 07:12:50;;;;;;;0.70;0.50;;;0.40;99.90;;;;;;5095505;28;20440;-72
2023/01/17 07:15:17;;;;;;;0.20;0.20;;;0.40;99.90;;;;;;5088920;28;20444;-72
2023/01/17 07:17:44;;;;;;;0.40;0.40;;;0.40;99.90;;;;;;5082726;28;20514;-73
2023/01/17 07:20:13;;;;;;;0.75;0.60;;;0.40;99.90;;;;;;5075099;28;20860;-72
2023/01/17 07:22:43;;;;;;;0.60;0.60;;;0.20;99.90;;;;;;5087123;28;20421;-72
2023/01/17 07:25:11;;;;;;;1.00;0.60;;;0.20;99.90;;;;;;5086497;28;20434;-73
2023/01/17 07:27:38;;;;;;;0.70;0.70;;;0.10;99.90;;;;;;5077813;28;20434;-73
2023/01/17 07:30:05;;;;;;;0.40;0.40;;;0.10;99.90;;;;;;5074469;28;20934;-73
2023/01/17 07:32:32;;;;;;;0.52;0.52;;;0.10;99.90;;;;;;5090843;28;20427;-73
2023/01/17 07:34:59;;;;;;;1.30;0.28;;;0.20;99.90;;;;;;5093309;28;20426;-72
2023/01/17 07:37:26;;;;;;;0.57;0.57;;;0.20;99.90;;;;;;5076985;28;22097;-73
2023/01/17 07:39:53;;;;;;;0.20;0.20;;;0.20;99.90;;;;;;5077389;28;20430;-73
2023/01/17 07:42:20;;;;;;;0.40;0.40;;;0.20;99.90;;;;;;5072125;28;20429;-73
2023/01/17 07:44:49;;;;;;;0.43;0.43;;;0.20;99.90;;;;;;5092804;28;20978;-73
2023/01/17 07:47:16;;;;;;;1.20;0.60;;;0.20;99.90;;;;;;5093403;28;20440;-73
2023/01/17 07:49:43;;;;;;;0.30;0.30;;;0.20;99.90;;;;;;5081070;28;20434;-73
2023/01/17 07:52:10;;;;;;;0.20;0.20;;;0.20;99.90;;;;;;5073198;28;20433;-73
2023/01/17 07:54:37;;;;;;;0.60;0.43;;;0.20;99.90;;;;;;5080270;28;20916;-73
2023/01/17 07:57:03;;;;;;;1.50;0.68;;;0.30;99.90;;;;;;5082341;28;20453;-74
2023/01/17 07:59:32;;;;;;;0.30;0.30;;;0.50;99.90;;;;;;5075186;28;20450;-73
2023/01/17 08:01:59;;;;;;;0.55;0.52;;;0.60;99.90;;;;;;5085755;28;20430;-73
2023/01/17 08:04:27;;;;;;;0.50;0.50;;;0.70;99.90;;;;;;5088733;28;20434;-73
2023/01/17 08:06:54;;;;;;;0.57;0.57;;;0.80;99.90;;;;;;5079807;28;20451;-74
2023/01/17 08:09:21;;;;;;;0.30;0.30;;;1.00;99.90;;;;;;5086190;28;20509;-73
2023/01/17 08:11:48;;;;;;;0.80;0.80;;;1.20;99.90;;;;;;5085818;28;20452;-73
2023/01/17 08:14:15;;;;;;;0.90;0.63;;;1.50;99.90;;;;;;5072840;28;20579;-78
2023/01/17 08:16:42;;;;;;;0.40;0.40;;;1.60;99.90;;;;;;5070754;28;20498;-75
2023/01/17 08:19:09;;;;;;;0.20;0.20;;;1.80;99.90;;;;;;5078675;28;20970;-75
2023/01/17 08:21:36;;;;;;;0.35;0.35;;;1.90;99.90;;;;;;5097584;28;20455;-73
2023/01/17 08:24:03;;;;;;;0.50;0.50;;;2.00;99.90;;;;;;5091284;28;20477;-73
2023/01/17 08:26:30;;;;;;;0.50;0.50;;;2.10;99.90;;;;;;5079752;28;20505;-73
2023/01/17 08:29:00;;;;;;;0.30;0.30;;;2.30;99.90;;;;;;5085931;28;20439;-73
2023/01/17 08:31:29;;;;;;;1.20;0.77;;;2.50;99.90;;;;;;5086314;28;20819;-73
2023/01/17 08:33:57;;;;;;;0.90;0.50;;;2.60;99.90;;;;;;5085107;28;20426;-73
2023/01/17 08:36:27;;;;;;;1.08;0.52;;;2.80;99.90;;;;;;5088111;28;20429;-73
2023/01/17 08:38:57;;;;;;;2.00;0.50;;;3.00;99.90;;;;;;5074382;28;20442;-73
2023/01/17 08:41:26;;;;;;;0.50;0.40;;;3.00;99.90;;;;;;5082898;28;20427;-73
2023/01/17 08:43:58;;;;;;;0.47;0.47;;;3.00;99.90;;;;;;5075250;28;20435;-73
2023/01/17 08:46:25;;;;;;;0.52;0.52;;;3.10;99.90;;;;;;5085094;28;20783;-72
2023/01/17 08:48:58;;;;;;;0.82;0.82;;;3.00;99.90;;;;;;5093140;28;20553;-73
2023/01/17 08:51:26;;;;;;;0.40;0.40;;;3.10;99.90;;;;;;5100136;28;20459;-72
2023/01/17 08:53:55;;;;;;;0.40;0.40;;;3.20;99.90;;;;;;5071871;28;20508;-73
2023/01/17 08:56:26;;;;;;;0.80;0.80;;;3.20;99.90;;;;;;5081632;28;20426;-72
2023/01/17 08:58:53;;;;;;;1.10;0.52;;;3.30;99.90;;;;;;5077898;28;20432;-73
2023/01/17 09:01:19;;;;;;;0.50;0.50;;;3.60;99.90;;;;;;5076622;28;20426;-73
2023/01/17 09:03:52;;;;;;;0.73;0.73;;;3.70;99.90;;;;;;5080666;28;20963;-73
2023/01/17 09:06:19;;;;;;;0.47;0.40;;;3.90;99.90;;;;;;5088222;28;21083;-73
2023/01/17 09:08:53;;;;;;;0.30;0.30;;;3.90;99.90;;;;;;5081400;28;20458;-73
2023/01/17 09:11:20;;;;;;;0.70;0.70;;;4.00;99.90;;;;;;5080749;28;20432;-73
2023/01/17 09:13:46;;;;;;;0.40;0.40;;;4.00;99.90;;;;;;5064982;28;20506;-73
2023/01/17 09:16:14;;;;;;;0.43;0.43;;;4.10;99.90;;;;;;5079758;28;20434;-73
2023/01/17 09:18:41;;;;;;;0.68;0.68;;;4.40;99.90;;;;;;5080730;28;20434;-73
2023/01/17 09:21:17;;;;;;;0.63;0.63;;;4.50;99.90;;;;;;5073920;28;20859;-73
2023/01/17 09:23:45;;;;;;;0.40;0.40;;;4.50;99.90;;;;;;5082318;28;20997;-74
2023/01/17 09:26:25;;;;;;;0.53;0.53;;;4.50;99.90;;;;;;5082425;28;20460;-73
2023/01/17 09:28:53;;;;;;;0.45;0.45;;;4.70;99.90;;;;;;5079461;28;20424;-73
2023/01/17 09:31:21;;;;;;;0.50;0.47;;;4.90;99.90;;;;;;5081745;28;20426;-73
2023/01/17 09:33:49;;;;;;;0.40;0.40;;;5.20;99.90;;;;;;5076127;28;20532;-73
2023/01/17 09:36:17;;;;;;;0.50;0.50;;;5.50;99.90;;;;;;5079776;28;20506;-73
2023/01/17 09:38:44;;;;;;;0.45;0.45;;;5.50;99.90;;;;;;5083270;28;20435;-73
2023/01/17 09:41:33;;;;;;;0.30;0.30;;;5.70;99.90;;;;;;5073086;28;20452;-73
2023/01/17 09:44:13;;;;;;;0.60;0.30;;;5.50;99.90;;;;;;5092386;28;20425;-73
2023/01/17 09:46:43;;;;;;;0.20;0.20;;;5.40;99.90;;;;;;5080964;28;20432;-73
2023/01/17 09:49:29;;;;;;;0.30;0.30;;;5.40;99.90;;;;;;5095202;28;20438;-73
2023/01/17 09:51:56;;;;;;;0.47;0.47;;;5.30;99.90;;;;;;5093575;28;20434;-73
2023/01/17 09:54:29;;;;;;;1.40;0.80;;;5.20;99.90;;;;;;5082562;28;20425;-73
2023/01/17 09:57:20;;;;;;;0.40;0.40;;;5.30;99.90;;;;;;5093231;28;20977;-73
2023/01/17 10:00:01;;;;;;;1.00;0.70;;;5.70;99.90;;;;;;5088112;28;20433;-73
2023/01/17 10:03:12;;;;;;;0.50;0.50;;;5.80;99.90;;;;;;5081980;28;20461;-73
2023/01/17 10:06:06;;;;;;;0.65;0.55;;;5.80;99.90;;;;;;5050347;28;20433;-73
2023/01/17 10:09:02;;;;;;;0.43;0.40;;;5.80;99.90;;;;;;5079866;28;20423;-73
2023/01/17 10:11:36;;;;;;;3.00;0.68;;;6.10;99.90;;;;;;5088768;28;20433;-73
2023/01/17 10:14:40;;;;;;;1.05;0.60;;;6.40;99.90;;;;;;5083961;28;20449;-73
2023/01/17 10:17:24;;;;;;;0.30;0.30;;;6.70;99.90;;;;;;5088152;28;20436;-73
2023/01/17 10:20:20;;;;;;;0.55;0.55;;;6.90;99.90;;;;;;5094890;28;20426;-73
2023/01/17 10:23:08;;;;;;;0.40;0.40;;;7.20;99.90;;;;;;5081826;28;20440;-73
2023/01/17 10:25:48;;;;;;;0.50;0.50;;;7.30;99.90;;;;;;5095792;28;20431;-73
2023/01/17 10:28:22;;;;;;;0.77;0.60;;;7.30;99.90;;;;;;5101647;28;20454;-73
2023/01/17 10:31:06;;;;;;;0.65;0.65;;;7.50;99.90;;;;;;5089393;28;20434;-74
2023/01/17 10:33:48;;;;;;;0.30;0.30;;;7.30;99.90;;;;;;5099271;28;20462;-73
2023/01/17 10:36:36;;;;;;;0.40;0.40;;;7.20;99.90;;;;;;5074575;28;20437;-73
2023/01/17 10:39:28;;;;;;;0.32;0.32;;;7.40;99.90;;;;;;5075528;28;20447;-73
2023/01/17 10:42:00;;;;;;;0.38;0.35;;;7.60;99.90;;;;;;5083671;28;20820;-74
2023/01/17 10:44:53;;;;;;;0.30;0.30;;;7.80;99.90;;;;;;5085062;28;20431;-74
2023/01/17 10:47:22;;;;;;;0.30;0.30;;;7.70;99.90;;;;;;5076037;28;20435;-73
2023/01/17 10:49:54;;;;;;;0.35;0.35;;;7.70;99.90;;;;;;5074396;28;20433;-73
2023/01/17 10:52:39;;;;;;;0.30;0.30;;;8.30;99.90;;;;;;5083689;28;20427;-73
2023/01/17 10:55:25;;;;;;;0.20;0.20;;;9.00;99.90;;;;;;5078187;28;20437;-73
2023/01/17 10:57:52;;;;;;;0.45;0.40;;;8.80;99.90;;;;;;5088093;28;20432;-73
2023/01/17 11:00:56;;;;;;;0.20;0.20;;;8.10;99.90;;;;;;5081668;28;20430;-73
2023/01/17 11:03:23;;;;;;;0.20;0.20;;;8.10;99.90;;;;;;5076648;28;21114;-73
2023/01/17 11:06:15;;;;;;;1.25;0.52;;;8.70;99.90;;;;;;5080875;28;20421;-74
2023/01/17 11:08:50;;;;;;;3.70;0.40;;;9.00;99.90;;;;;;5081904;28;20480;-73
2023/01/17 11:11:19;;;;;;;0.32;0.32;;;9.30;99.90;;;;;;5106065;28;20432;-73
2023/01/17 11:13:48;;;;;;;0.50;0.50;;;8.40;99.90;;;;;;5083674;28;20427;-73
2023/01/17 11:16:24;;;;;;;0.90;0.40;;;8.20;99.90;;;;;;5090562;28;21137;-73
2023/01/17 11:19:05;;;;;;;0.30;0.30;;;7.80;99.90;;;;;;5079663;28;21156;-73
2023/01/17 11:21:32;;;;;;;1.05;0.45;;;7.90;99.90;;;;;;5089717;28;20460;-73
2023/01/17 11:24:09;;;;;;;0.80;0.65;;;8.30;99.90;;;;;;5086944;28;20424;-73
2023/01/17 11:26:44;;;;;;;1.50;0.57;;;9.00;99.90;;;;;;5081488;28;20512;-73
2023/01/17 11:29:26;;;;;;;0.30;0.30;;;9.50;99.90;;;;;;5087729;28;20430;-73
2023/01/17 11:31:55;;;;;;;0.30;0.30;;;9.00;99.90;;;;;;5078482;28;20516;-73
2023/01/17 11:34:30;;;;;;;0.30;0.30;;;8.20;99.90;;;;;;5084115;28;20416;-73
2023/01/17 11:37:19;;;;;;;0.40;0.40;;;7.90;99.90;;;;;;5077524;28;20434;-73
2023/01/17 11:39:47;;;;;;;0.50;0.50;;;7.30;99.90;;;;;;5084768;28;20467;-73
2023/01/17 11:42:37;;;;;;;0.38;0.38;;;7.30;99.90;;;;;;5085167;28;20480;-74
2023/01/17 11:45:28;;;;;;;0.40;0.20;;;7.40;99.90;;;;;;5074502;28;20424;-73
2023/01/17 11:48:07;;;;;;;0.40;0.40;;;7.30;99.90;;;;;;5076088;28;20426;-74
2023/01/17 11:50:38;;;;;;;0.40;0.40;;;7.00;99.90;;;;;;5094690;28;20462;-73
2023/01/17 11:53:14;;;;;;;2.25;0.47;;;7.00;99.90;;;;;;5078995;28;20426;-73
2023/01/17 11:56:04;;;;;;;0.40;0.40;;;6.90;99.90;;;;;;5098162;28;20466;-73
2023/01/17 11:58:38;;;;;;;0.20;0.20;;;6.60;99.90;;;;;;5079165;28;20433;-73
2023/01/17 12:01:17;;;;;;;0.20;0.20;;;6.60;99.90;;;;;;5082855;28;20422;-73
2023/01/17 12:04:30;;;;;;;0.28;0.28;;;6.90;99.90;;;;;;5079923;28;20989;-73
2023/01/17 12:07:15;;;;;;;0.30;0.30;;;7.00;99.90;;;;;;5083767;28;20948;-73
2023/01/17 12:10:11;;;;;;;0.20;0.20;;;7.30;99.90;;;;;;5088879;28;20448;-74
2023/01/17 12:19:17;;;;;;;0.32;0.32;;;7.30;99.90;;;;;;5080915;28;20440;-74
2023/01/17 12:21:50;;;;;;;0.50;0.50;;;7.20;99.90;;;;;;5077907;28;20432;-73
2023/01/17 12:24:53;;;;;;;1.27;0.52;;;6.90;99.90;;;;;;5079388;28;20963;-74
2023/01/17 12:27:33;;;;;;;7.22;0.60;;;6.80;99.90;;;;;;5074871;28;20471;-73
2023/01/17 12:30:15;;;;;;;0.50;0.50;;;6.90;99.90;;;;;;5089308;28;20485;-73
2023/01/17 12:32:54;;;;;;;0.40;0.40;;;7.10;99.90;;;;;;5090767;28;20449;-73
2023/01/17 12:35:30;;;;;;;0.80;0.80;;;7.00;99.90;;;;;;5083093;28;20780;-73
2023/01/17 12:38:10;;;;;;;0.50;0.50;;;6.90;99.90;;;;;;5080109;28;20434;-73
2023/01/17 12:40:59;;;;;;;1.17;0.85;;;6.80;99.90;;;;;;5081735;28;20437;-73
2023/01/17 12:43:32;;;;;;;0.40;0.30;;;6.60;99.90;;;;;;5085964;28;20960;-73
2023/01/17 12:46:04;;;;;;;0.50;0.50;;;6.50;99.90;;;;;;5088306;28;20427;-73
2023/01/17 12:48:38;;;;;;;0.32;0.32;;;6.20;99.90;;;;;;5088362;28;20446;-74
2023/01/17 12:51:22;;;;;;;0.57;0.57;;;6.20;99.90;;;;;;5088716;28;20505;-74
2023/01/17 12:54:11;;;;;;;2.20;0.30;;;6.20;99.90;;;;;;5078565;28;20429;-74
2023/01/17 12:56:41;;;;;;;0.40;0.40;;;6.00;99.90;;;;;;5077594;28;20439;-74
2023/01/17 12:59:43;;;;;;;0.40;0.40;;;6.00;99.90;;;;;;5071193;28;20486;-75
2023/01/17 13:02:32;;;;;;;0.50;0.50;;;6.00;99.90;;;;;;5085046;28;20433;-74
2023/01/17 13:05:35;;;;;;;0.40;0.40;;;6.00;99.90;;;;;;5078786;28;20434;-74
2023/01/17 13:08:18;;;;;;;0.32;0.32;;;5.70;99.90;;;;;;5086006;28;20429;-74
2023/01/17 13:10:54;;;;;;;0.40;0.40;;;5.60;99.90;;;;;;5079882;28;20430;-73
2023/01/17 13:13:24;;;;;;;0.30;0.30;;;5.60;99.90;;;;;;5074960;28;20427;-74
2023/01/17 13:16:03;;;;;;;0.40;0.40;;;5.40;99.90;;;;;;5074341;28;20425;-73
2023/01/17 13:18:32;;;;;;;0.35;0.35;;;5.50;99.90;;;;;;5091391;28;20493;-74
2023/01/17 13:21:21;;;;;;;0.40;0.40;;;5.60;99.90;;;;;;5081856;28;20426;-73
2023/01/17 13:23:51;;;;;;;0.30;0.30;;;5.70;99.90;;;;;;5082398;28;20435;-73
2023/01/17 13:26:43;;;;;;;1.02;0.93;;;5.60;99.90;;;;;;5094683;28;20776;-73
2023/01/17 13:29:51;;;;;;;0.60;0.40;;;5.80;99.90;;;;;;5087499;28;20537;-73
2023/01/17 13:32:42;;;;;;;0.30;0.30;;;5.80;99.90;;;;;;5082888;28;20428;-73
2023/01/17 13:35:09;;;;;;;0.30;0.30;;;5.70;99.90;;;;;;5081783;28;20432;-73
2023/01/17 13:38:03;;;;;;;0.45;0.45;;;5.70;99.90;;;;;;5094712;28;20430;-73
2023/01/17 13:40:41;;;;;;;0.70;0.50;;;5.60;99.90;;;;;;5073342;28;20521;-73
2023/01/17 13:43:17;;;;;;;0.50;0.30;;;5.50;99.90;;;;;;5091100;28;20429;-73
2023/01/17 13:45:52;;;;;;;0.20;0.20;;;5.30;99.90;;;;;;5088902;28;20515;-73
2023/01/17 13:48:22;;;;;;;0.65;0.20;;;5.20;99.90;;;;;;5103994;28;20427;-73
2023/01/17 13:51:25;;;;;;;0.43;0.38;;;4.90;99.90;;;;;;5070911;28;20423;-73
2023/01/17 13:53:53;;;;;;;0.70;0.40;;;4.90;99.90;;;;;;5054355;28;20428;-73
2023/01/17 13:56:29;;;;;;;0.77;0.57;;;4.70;99.90;;;;;;5066348;28;20842;-72
2023/01/17 13:59:04;;;;;;;0.35;0.35;;;4.60;99.90;;;;;;5072090;28;21036;-73
2023/01/17 14:01:30;;;;;;;0.55;0.55;;;4.50;99.90;;;;;;5063331;28;21354;-73
2023/01/17 14:03:57;;;;;;;1.95;1.10;;;4.50;99.90;;;;;;5055638;28;20427;-73
2023/01/17 14:07:00;;;;;;;0.30;0.30;;;4.60;99.90;;;;;;5067461;28;20423;-73
2023/01/17 14:09:41;;;;;;;0.47;0.47;;;4.60;99.90;;;;;;5067361;28;20913;-72
2023/01/17 14:12:08;;;;;;;2.50;0.40;;;4.60;99.90;;;;;;5066098;28;20481;-73
2023/01/17 14:14:40;;;;;;;0.52;0.52;;;4.60;99.90;;;;;;5066555;28;20469;-72
2023/01/17 14:17:21;;;;;;;0.20;0.20;;;4.60;99.90;;;;;;5065469;28;20477;-72
2023/01/17 14:20:05;;;;;;;0.40;0.40;;;4.60;99.90;;;;;;5059171;28;20842;-73
2023/01/17 14:22:38;;;;;;;0.43;0.43;;;4.60;99.90;;;;;;5077793;28;20505;-73
2023/01/17 14:25:18;;;;;;;0.60;0.60;;;4.50;99.90;;;;;;5058696;28;20423;-72
2023/01/17 14:27:47;;;;;;;1.80;0.80;;;4.50;99.90;;;;;;5072725;28;20446;-72
2023/01/17 14:30:16;;;;;;;0.47;0.47;;;4.50;99.90;;;;;;5095749;28;20462;-72
2023/01/17 14:33:04;;;;;;;0.90;0.90;;;4.40;99.90;;;;;;5073813;28;20518;-72
2023/01/17 14:35:32;;;;;;;0.77;0.60;;;4.30;99.90;;;;;;5083042;28;20436;-73
2023/01/17 14:38:04;;;;;;;1.48;0.88;;;4.20;99.90;;;;;;5081883;28;20426;-73
2023/01/17 14:40:33;;;;;;;3.40;0.80;;;4.20;99.90;;;;;;5094068;28;20465;-72
2023/01/17 14:43:21;;;;;;;3.50;0.60;;;4.10;99.90;;;;;;5087887;28;20431;-72
2023/01/17 14:46:24;;;;;;;7.10;3.55;;;3.90;99.90;;;;;;5093716;28;21459;-73
2023/01/17 14:48:58;;;;;;;1.00;0.60;;;3.80;99.90;;;;;;5074997;28;20434;-73
2023/01/17 14:51:25;;;;;;;0.50;0.50;;;3.70;99.90;;;;;;5088360;28;20424;-72
2023/01/17 14:53:57;;;;;;;0.40;0.40;;;3.70;99.90;;;;;;5093811;28;20505;-74